Terminal Aerodrome Forecast
Issued by NWS

Home | Current Version | Previous Version | Graphics & Text | Print | Product List | Glossary On
Versions: 1 2 3 4 5 6 7 8 9 10 11 12 13 14 15 16 17 18 19 20 21 22 23
637
FTUS43 KTOP 281720
TAFMHK
TAF
KMHK 281720Z 2818/2918 32007KT P6SM SCT015 BKN100
     FM290000 01005KT P6SM BKN100
     FM290700 05008KT P6SM VCSH SCT025 BKN100=

USA.gov is the U.S. government's official web portal to all federal, state and local government web resources and services.